Impacts TAF Board
For situational awareness. Not to be used for flight planning purposes.
IDs:

KMDW - Chicago/Midway Intl, IL, US

Issued at 1720 UTC 12 Dec 2018
Updated at 1827 UTC 12 Dec 2018
Potential Impact None Slight Moderate High
Time1753Z 12/19Z 12/20Z 12/21Z 12/22Z 12/23Z 13/00Z 13/01Z 13/02Z 13/03Z 13/04Z 13/05Z 13/06Z 13/07Z>>
Type OBS PRVL PRVL PRVL PRVL PRVL PRVL PRVL PRVL PRVL PRVL PRVL PRVL PRVL
VIS 10 >6 >6 >6 >6 >6 >6 >6 >6 >6 >6 >6 >6 >6
CIG -- 18 18 18 18 20 20 20 20 -- -- -- -- --
Cover FEW OVC OVC OVC OVC OVC OVC OVC OVC SCT SCT SCT SCT SCT
FltCat VFR MVFR MVFR MVFR MVFR MVFR MVFR MVFR MVFR VFR VFR VFR VFR VFR
WX -- -- -- -- -- -- -- -- -- -- -- -- -- --
WDir 240 240 240 240 240 250 250 250 250 240 240 240 240 240
WSpd 13 14 14 14 14 10 10 10 10 6 6 6 6 6
WGst 25 23 23 23 23 -- -- -- -- -- -- -- -- --
Raw TAF
KMDW 121720Z 1218/1324 24014G23KT P6SM OVC018
  FM122300 25010KT P6SM OVC020
  FM130300 24006KT P6SM SCT040
  FM131500 16005KT P6SM BKN250
  FM132200 14008KT P6SM BKN016


Raw METAR
KMDW 121753Z 24013G25KT 10SM FEW030 FEW150 06/M02 A2973 RMK AO2 SLP077 60000 T00561022 10061 20028 55007
KMDW 121653Z 22017G25KT 10SM SCT022 06/M01 A2973 RMK AO2 SLP076 T00561011
KMDW 121650Z 22018G25KT 10SM SCT022 06/M01 A2973 RMK AO2
KMDW 121614Z 21014G23KT 10SM BKN022 05/M01 A2974 RMK AO2 T00501006
KMDW 121553Z 20013G23KT 10SM FEW033 FEW080 04/M01 A2974 RMK AO2 PK WND 18026/1533 SLP080 T00441006

METAR Board
Radar Display
Forecast Discussion
For situational awareness. Not to be used for flight planning purposes.